sensor_id;sensor_type;location;lat;lon;timestamp;pressure;altitude;pressure_sealevel;temperature;humidity
23241;BME280;11789;53.482;9.862;2023-03-23T00:01:48;100358.69;;;9.51;100.00
23241;BME280;11789;53.482;9.862;2023-03-23T00:04:15;100363.00;;;9.48;100.00
23241;BME280;11789;53.482;9.862;2023-03-23T00:06:41;100356.13;;;9.48;100.00
23241;BME280;11789;53.482;9.862;2023-03-23T00:09:09;100350.13;;;9.45;100.00
23241;BME280;11789;53.482;9.862;2023-03-23T00:11:35;100355.31;;;9.43;100.00
23241;BME280;11789;53.482;9.862;2023-03-23T00:14:01;100356.13;;;9.42;100.00
23241;BME280;11789;53.482;9.862;2023-03-23T00:16:32;100357.03;;;9.40;100.00
23241;BME280;11789;53.482;9.862;2023-03-23T00:19:00;100356.13;;;9.42;100.00
23241;BME280;11789;53.482;9.862;2023-03-23T00:21:29;100352.72;;;9.43;100.00
23241;BME280;11789;53.482;9.862;2023-03-23T00:24:18;100340.66;;;9.42;100.00
23241;BME280;11789;53.482;9.862;2023-03-23T00:26:46;100351.00;;;9.36;100.00
23241;BME280;11789;53.482;9.862;2023-03-23T00:29:20;100335.56;;;9.33;100.00
23241;BME280;11789;53.482;9.862;2023-03-23T00:31:49;100344.12;;;9.32;100.00
23241;BME280;11789;53.482;9.862;2023-03-23T00:34:16;100329.53;;;9.31;100.00
23241;BME280;11789;53.482;9.862;2023-03-23T00:36:46;100314.94;;;9.28;100.00
23241;BME280;11789;53.482;9.862;2023-03-23T00:39:12;100308.94;;;9.28;100.00
23241;BME280;11789;53.482;9.862;2023-03-23T00:41:38;100314.09;;;9.28;100.00
23241;BME280;11789;53.482;9.862;2023-03-23T00:44:04;100310.63;;;9.27;100.00
23241;BME280;11789;53.482;9.862;2023-03-23T00:46:29;100305.47;;;9.27;100.00
23241;BME280;11789;53.482;9.862;2023-03-23T00:48:56;100273.66;;;9.30;100.00
23241;BME280;11789;53.482;9.862;2023-03-23T00:51:23;100262.47;;;9.29;100.00
23241;BME280;11789;53.482;9.862;2023-03-23T00:53:49;100254.72;;;9.31;100.00
23241;BME280;11789;53.482;9.862;2023-03-23T00:56:15;100263.34;;;9.30;100.00
23241;BME280;11789;53.482;9.862;2023-03-23T00:58:41;100274.50;;;9.30;100.00
23241;BME280;11789;53.482;9.862;2023-03-23T01:01:07;100267.66;;;9.29;100.00
23241;BME280;11789;53.482;9.862;2023-03-23T01:03:32;100271.94;;;9.30;100.00
23241;BME280;11789;53.482;9.862;2023-03-23T01:06:08;100263.34;;;9.30;100.00
23241;BME280;11789;53.482;9.862;2023-03-23T01:08:41;100255.62;;;9.28;100.00
23241;BME280;11789;53.482;9.862;2023-03-23T01:11:13;100241.00;;;9.29;100.00
23241;BME280;11789;53.482;9.862;2023-03-23T01:13:38;100228.09;;;9.30;100.00
23241;BME280;11789;53.482;9.862;2023-03-23T01:16:05;100224.63;;;9.34;100.00
23241;BME280;11789;53.482;9.862;2023-03-23T01:18:31;100247.84;;;9.33;100.00
23241;BME280;11789;53.482;9.862;2023-03-23T01:20:56;100234.94;;;9.31;100.00
23241;BME280;11789;53.482;9.862;2023-03-23T01:23:22;100240.09;;;9.31;100.00
23241;BME280;11789;53.482;9.862;2023-03-23T01:25:48;100234.09;;;9.31;100.00
23241;BME280;11789;53.482;9.862;2023-03-23T01:28:14;100235.84;;;9.29;100.00
23241;BME280;11789;53.482;9.862;2023-03-23T01:30:40;100234.09;;;9.31;100.00
23241;BME280;11789;53.482;9.862;2023-03-23T01:33:06;100228.09;;;9.30;100.00
23241;BME280;11789;53.482;9.862;2023-03-23T01:35:32;100222.94;;;9.30;100.00
23241;BME280;11789;53.482;9.862;2023-03-23T01:37:57;100234.13;;;9.29;100.00
23241;BME280;11789;53.482;9.862;2023-03-23T01:40:23;100227.22;;;9.27;100.00
23241;BME280;11789;53.482;9.862;2023-03-23T01:42:48;100217.78;;;9.26;100.00
23241;BME280;11789;53.482;9.862;2023-03-23T01:45:25;100214.34;;;9.30;100.00
23241;BME280;11789;53.482;9.862;2023-03-23T01:48:03;100208.31;;;9.26;100.00
23241;BME280;11789;53.482;9.862;2023-03-23T01:50:36;100205.75;;;9.28;100.00
23241;BME280;11789;53.482;9.862;2023-03-23T01:53:05;100203.19;;;9.28;100.00
23241;BME280;11789;53.482;9.862;2023-03-23T01:55:35;100204.00;;;9.30;100.00
23241;BME280;11789;53.482;9.862;2023-03-23T01:58:01;100193.69;;;9.33;100.00
23241;BME280;11789;53.482;9.862;2023-03-23T02:00:27;100208.28;;;9.34;100.00
23241;BME280;11789;53.482;9.862;2023-03-23T02:02:54;100197.94;;;9.37;100.00
23241;BME280;11789;53.482;9.862;2023-03-23T02:05:37;100201.38;;;9.36;100.00
23241;BME280;11789;53.482;9.862;2023-03-23T02:08:04;100197.09;;;9.36;100.00
23241;BME280;11789;53.482;9.862;2023-03-23T02:10:32;100197.09;;;9.36;100.00
23241;BME280;11789;53.482;9.862;2023-03-23T02:12:59;100197.97;;;9.35;100.00
23241;BME280;11789;53.482;9.862;2023-03-23T02:15:59;100208.25;;;9.37;100.00
23241;BME280;11789;53.482;9.862;2023-03-23T02:24:02;100191.06;;;9.36;100.00
23241;BME280;11789;53.482;9.862;2023-03-23T02:35:35;100186.75;;;9.36;100.00
23241;BME280;11789;53.482;9.862;2023-03-23T02:40:44;100166.16;;;9.33;100.00
23241;BME280;11789;53.482;9.862;2023-03-23T02:43:14;100170.44;;;9.36;100.00
23241;BME280;11789;53.482;9.862;2023-03-23T02:45:42;100170.44;;;9.36;100.00
23241;BME280;11789;53.482;9.862;2023-03-23T02:48:10;100161.81;;;9.37;100.00
23241;BME280;11789;53.482;9.862;2023-03-23T02:50:40;100157.56;;;9.34;100.00
23241;BME280;11789;53.482;9.862;2023-03-23T02:53:10;100159.25;;;9.35;100.00
23241;BME280;11789;53.482;9.862;2023-03-23T02:55:39;100166.13;;;9.36;100.00
23241;BME280;11789;53.482;9.862;2023-03-23T02:58:08;100170.44;;;9.36;100.00
23241;BME280;11789;53.482;9.862;2023-03-23T03:00:33;100164.41;;;9.39;100.00
23241;BME280;11789;53.482;9.862;2023-03-23T03:03:00;100148.03;;;9.41;100.00
23241;BME280;11789;53.482;9.862;2023-03-23T03:08:26;100141.16;;;9.43;100.00
23241;BME280;11789;53.482;9.862;2023-03-23T03:11:12;100143.75;;;9.43;100.00
23241;BME280;11789;53.482;9.862;2023-03-23T03:16:31;100138.53;;;9.49;100.00
23241;BME280;11789;53.482;9.862;2023-03-23T03:19:08;100114.44;;;9.50;100.00
23241;BME280;11789;53.482;9.862;2023-03-23T03:21:40;100112.72;;;9.49;100.00
23241;BME280;11789;53.482;9.862;2023-03-23T03:24:07;100111.84;;;9.53;100.00
23241;BME280;11789;53.482;9.862;2023-03-23T03:26:37;100079.12;;;9.55;100.00
23241;BME280;11789;53.482;9.862;2023-03-23T03:29:05;100067.09;;;9.54;100.00
23241;BME280;11789;53.482;9.862;2023-03-23T03:31:38;100073.94;;;9.57;100.00
23241;BME280;11789;53.482;9.862;2023-03-23T03:34:05;100079.12;;;9.55;100.00
23241;BME280;11789;53.482;9.862;2023-03-23T03:36:33;100099.78;;;9.54;100.00
23241;BME280;11789;53.482;9.862;2023-03-23T03:39:08;100068.81;;;9.55;100.00
23241;BME280;11789;53.482;9.862;2023-03-23T03:41:36;100059.34;;;9.53;100.00
23241;BME280;11789;53.482;9.862;2023-03-23T03:44:04;100062.81;;;9.53;100.00
23241;BME280;11789;53.482;9.862;2023-03-23T03:46:30;100080.87;;;9.53;100.00
23241;BME280;11789;53.482;9.862;2023-03-23T03:48:57;100085.16;;;9.54;100.00
23241;BME280;11789;53.482;9.862;2023-03-23T03:51:24;100086.00;;;9.55;100.00
23241;BME280;11789;53.482;9.862;2023-03-23T03:53:56;100090.28;;;9.56;100.00
23241;BME280;11789;53.482;9.862;2023-03-23T03:56:23;100088.63;;;9.53;100.00
23241;BME280;11789;53.482;9.862;2023-03-23T03:58:50;100085.13;;;9.57;100.00
23241;BME280;11789;53.482;9.862;2023-03-23T04:01:17;100070.56;;;9.53;100.00
23241;BME280;11789;53.482;9.862;2023-03-23T04:03:43;100080.81;;;9.56;100.00
23241;BME280;11789;53.482;9.862;2023-03-23T04:06:09;100074.84;;;9.54;100.00
23241;BME280;11789;53.482;9.862;2023-03-23T04:08:36;100080.81;;;9.56;100.00
23241;BME280;11789;53.482;9.862;2023-03-23T04:11:03;100080.81;;;9.59;100.00
23241;BME280;11789;53.482;9.862;2023-03-23T04:13:29;100084.28;;;9.55;100.00
23241;BME280;11789;53.482;9.862;2023-03-23T04:15:55;100089.44;;;9.55;100.00
23241;BME280;11789;53.482;9.862;2023-03-23T04:18:21;100092.88;;;9.56;100.00
23241;BME280;11789;53.482;9.862;2023-03-23T04:20:48;100091.16;;;9.55;100.00
23241;BME280;11789;53.482;9.862;2023-03-23T04:23:19;100095.47;;;9.53;100.00
23241;BME280;11789;53.482;9.862;2023-03-23T04:25:49;100098.94;;;9.53;100.00
23241;BME280;11789;53.482;9.862;2023-03-23T04:28:16;100090.31;;;9.53;100.00
23241;BME280;11789;53.482;9.862;2023-03-23T04:30:44;100106.62;;;9.56;100.00
23241;BME280;11789;53.482;9.862;2023-03-23T04:33:11;100106.62;;;9.59;100.00
23241;BME280;11789;53.482;9.862;2023-03-23T04:35:41;100089.38;;;9.61;100.00
23241;BME280;11789;53.482;9.862;2023-03-23T04:38:08;100099.72;;;9.63;100.00
23241;BME280;11789;53.482;9.862;2023-03-23T04:40:39;100094.53;;;9.65;100.00
23241;BME280;11789;53.482;9.862;2023-03-23T04:43:06;100091.00;;;9.72;100.00
23241;BME280;11789;53.482;9.862;2023-03-23T04:45:33;100088.41;;;9.75;100.00
23241;BME280;11789;53.482;9.862;2023-03-23T04:47:59;100090.09;;;9.77;100.00
23241;BME280;11789;53.482;9.862;2023-03-23T04:50:30;100084.87;;;9.82;100.00
23241;BME280;11789;53.482;9.862;2023-03-23T04:52:57;100076.25;;;9.86;100.00
23241;BME280;11789;53.482;9.862;2023-03-23T04:55:24;100078.84;;;9.83;100.00
23241;BME280;11789;53.482;9.862;2023-03-23T04:57:50;100075.44;;;9.81;100.00
23241;BME280;11789;53.482;9.862;2023-03-23T05:00:17;100081.50;;;9.78;100.00
23241;BME280;11789;53.482;9.862;2023-03-23T05:02:45;100070.34;;;9.75;100.00
23241;BME280;11789;53.482;9.862;2023-03-23T05:05:13;100071.19;;;9.75;100.00
23241;BME280;11789;53.482;9.862;2023-03-23T05:07:40;100066.88;;;9.76;100.00
23241;BME280;11789;53.482;9.862;2023-03-23T05:10:08;100063.47;;;9.72;100.00
23241;BME280;11789;53.482;9.862;2023-03-23T05:12:34;100073.81;;;9.71;100.00
23241;BME280;11789;53.482;9.862;2023-03-23T05:14:59;100072.13;;;9.67;100.00
23241;BME280;11789;53.482;9.862;2023-03-23T05:17:26;100073.03;;;9.64;100.00
23241;BME280;11789;53.482;9.862;2023-03-23T05:19:51;100072.16;;;9.62;100.00
23241;BME280;11789;53.482;9.862;2023-03-23T05:22:17;100073.06;;;9.59;100.00
23241;BME280;11789;53.482;9.862;2023-03-23T05:24:46;100072.22;;;9.57;100.00
23241;BME280;11789;53.482;9.862;2023-03-23T05:27:12;100080.81;;;9.59;100.00
23241;BME280;11789;53.482;9.862;2023-03-23T05:29:40;100080.84;;;9.58;100.00
23241;BME280;11789;53.482;9.862;2023-03-23T05:32:08;100085.13;;;9.59;100.00
23241;BME280;11789;53.482;9.862;2023-03-23T05:34:34;100082.53;;;9.59;100.00
23241;BME280;11789;53.482;9.862;2023-03-23T05:37:01;100080.81;;;9.56;100.00
23241;BME280;11789;53.482;9.862;2023-03-23T05:39:28;100081.69;;;9.57;100.00
23241;BME280;11789;53.482;9.862;2023-03-23T05:41:55;100075.69;;;9.58;100.00
23241;BME280;11789;53.482;9.862;2023-03-23T05:44:20;100078.25;;;9.56;100.00
23241;BME280;11789;53.482;9.862;2023-03-23T05:46:46;100080.81;;;9.56;100.00
23241;BME280;11789;53.482;9.862;2023-03-23T05:49:12;100074.81;;;9.56;100.00
23241;BME280;11789;53.482;9.862;2023-03-23T05:51:39;100077.37;;;9.59;100.00
23241;BME280;11789;53.482;9.862;2023-03-23T05:54:05;100067.06;;;9.59;100.00
23241;BME280;11789;53.482;9.862;2023-03-23T05:56:30;100059.31;;;9.57;100.00
23241;BME280;11789;53.482;9.862;2023-03-23T05:58:56;100063.63;;;9.58;100.00
23241;BME280;11789;53.482;9.862;2023-03-23T06:01:23;100067.91;;;9.59;100.00
23241;BME280;11789;53.482;9.862;2023-03-23T06:03:49;100073.94;;;9.58;100.00
23241;BME280;11789;53.482;9.862;2023-03-23T06:06:20;100061.06;;;9.55;100.00
23241;BME280;11789;53.482;9.862;2023-03-23T06:08:45;100055.03;;;9.56;100.00
23241;BME280;11789;53.482;9.862;2023-03-23T06:11:11;100062.75;;;9.56;100.00
23241;BME280;11789;53.482;9.862;2023-03-23T06:13:37;100061.06;;;9.52;100.00
23241;BME280;11789;53.482;9.862;2023-03-23T06:16:03;100056.78;;;9.54;100.00
23241;BME280;11789;53.482;9.862;2023-03-23T06:18:29;100053.34;;;9.54;100.00
23241;BME280;11789;53.482;9.862;2023-03-23T06:20:59;100056.78;;;9.53;100.00
23241;BME280;11789;53.482;9.862;2023-03-23T06:23:25;100060.22;;;9.53;100.00
23241;BME280;11789;53.482;9.862;2023-03-23T06:25:55;100067.97;;;9.52;100.00
23241;BME280;11789;53.482;9.862;2023-03-23T06:28:22;100059.34;;;9.54;100.00
23241;BME280;11789;53.482;9.862;2023-03-23T06:30:47;100062.75;;;9.56;100.00
23241;BME280;11789;53.482;9.862;2023-03-23T06:33:13;100059.31;;;9.59;100.00
23241;BME280;11789;53.482;9.862;2023-03-23T06:35:38;100061.88;;;9.60;100.00
23241;BME280;11789;53.482;9.862;2023-03-23T06:38:03;100063.59;;;9.63;100.00
23241;BME280;11789;53.482;9.862;2023-03-23T06:40:29;100064.37;;;9.68;100.00
23241;BME280;11789;53.482;9.862;2023-03-23T06:42:57;100075.56;;;9.69;100.00
23241;BME280;11789;53.482;9.862;2023-03-23T06:45:24;100077.25;;;9.71;100.00
23241;BME280;11789;53.482;9.862;2023-03-23T06:47:50;100078.91;;;9.77;100.00
23241;BME280;11789;53.482;9.862;2023-03-23T06:50:16;100080.56;;;9.84;100.00
23241;BME280;11789;53.482;9.862;2023-03-23T06:52:46;100072.72;;;9.92;100.00
23241;BME280;11789;53.482;9.862;2023-03-23T06:55:12;100067.53;;;9.96;100.00
23241;BME280;11789;53.482;9.862;2023-03-23T06:57:38;100074.28;;;10.08;100.00
23241;BME280;11789;53.482;9.862;2023-03-23T07:00:04;100068.03;;;10.27;100.00
23241;BME280;11789;53.482;9.862;2023-03-23T07:02:33;100071.28;;;10.43;100.00
23241;BME280;11789;53.482;9.862;2023-03-23T07:04:58;100071.25;;;10.49;100.00
23241;BME280;11789;53.482;9.862;2023-03-23T07:07:23;100066.78;;;10.59;100.00
23241;BME280;11789;53.482;9.862;2023-03-23T07:09:49;100068.44;;;10.64;100.00
23241;BME280;11789;53.482;9.862;2023-03-23T07:12:14;100065.78;;;10.71;100.00
23241;BME280;11789;53.482;9.862;2023-03-23T07:14:40;100071.56;;;10.86;100.00
23241;BME280;11789;53.482;9.862;2023-03-23T07:17:06;100070.66;;;10.89;100.00
23241;BME280;11789;53.482;9.862;2023-03-23T07:19:33;100081.94;;;10.85;100.00
23241;BME280;11789;53.482;9.862;2023-03-23T07:21:58;100087.16;;;10.82;100.00
23241;BME280;11789;53.482;9.862;2023-03-23T07:24:24;100075.09;;;10.81;100.00
23241;BME280;11789;53.482;9.862;2023-03-23T07:26:50;100085.47;;;10.78;100.00
23241;BME280;11789;53.482;9.862;2023-03-23T07:29:16;100067.37;;;10.78;100.00
23241;BME280;11789;53.482;9.862;2023-03-23T07:31:41;100074.25;;;10.79;100.00
23241;BME280;11789;53.482;9.862;2023-03-23T07:34:07;100075.88;;;10.86;100.00
23241;BME280;11789;53.482;9.862;2023-03-23T07:36:33;100088.63;;;10.98;100.00
23241;BME280;11789;53.482;9.862;2023-03-23T07:39:03;100086.88;;;10.99;100.00
23241;BME280;11789;53.482;9.862;2023-03-23T07:41:32;100084.31;;;11.00;100.00
23241;BME280;11789;53.482;9.862;2023-03-23T07:43:58;100094.34;;;11.18;100.00
23241;BME280;11789;53.482;9.862;2023-03-23T07:46:23;100097.63;;;11.30;100.00
23241;BME280;11789;53.482;9.862;2023-03-23T07:48:49;100105.56;;;11.19;100.00
23241;BME280;11789;53.482;9.862;2023-03-23T07:51:15;100095.34;;;11.10;100.00
23241;BME280;11789;53.482;9.862;2023-03-23T07:53:43;100104.91;;;11.06;100.00
23241;BME280;11789;53.482;9.862;2023-03-23T07:56:12;100100.53;;;11.08;100.00
23241;BME280;11789;53.482;9.862;2023-03-23T07:58:40;100099.72;;;11.06;100.00
23241;BME280;11789;53.482;9.862;2023-03-23T08:01:06;100101.47;;;11.04;100.00
23241;BME280;11789;53.482;9.862;2023-03-23T08:03:32;100101.50;;;11.03;100.00
23241;BME280;11789;53.482;9.862;2023-03-23T08:05:59;100112.75;;;11.00;100.00
23241;BME280;11789;53.482;9.862;2023-03-23T08:08:25;100119.63;;;11.00;100.00
23241;BME280;11789;53.482;9.862;2023-03-23T08:10:51;100118.87;;;10.93;100.00
23241;BME280;11789;53.482;9.862;2023-03-23T08:13:16;100126.72;;;10.87;100.00
23241;BME280;11789;53.482;9.862;2023-03-23T08:15:42;100125.97;;;10.80;100.00
23241;BME280;11789;53.482;9.862;2023-03-23T08:18:08;100124.25;;;10.78;100.00
23241;BME280;11789;53.482;9.862;2023-03-23T08:20:33;100135.47;;;10.77;100.00
23241;BME280;11789;53.482;9.862;2023-03-23T08:23:00;100142.34;;;10.78;100.00
23241;BME280;11789;53.482;9.862;2023-03-23T08:25:28;100143.25;;;10.74;100.00
23241;BME280;11789;53.482;9.862;2023-03-23T08:27:56;100143.25;;;10.74;100.00
23241;BME280;11789;53.482;9.862;2023-03-23T08:30:22;100140.75;;;10.71;100.00
23241;BME280;11789;53.482;9.862;2023-03-23T08:32:50;100148.53;;;10.68;100.00
23241;BME280;11789;53.482;9.862;2023-03-23T08:35:17;100155.47;;;10.62;100.00
23241;BME280;11789;53.482;9.862;2023-03-23T08:37:43;100149.47;;;10.60;100.00
23241;BME280;11789;53.482;9.862;2023-03-23T08:40:11;100137.44;;;10.58;100.00
23241;BME280;11789;53.482;9.862;2023-03-23T08:42:42;100145.16;;;10.61;100.00
23241;BME280;11789;53.482;9.862;2023-03-23T08:45:10;100143.41;;;10.64;100.00
23241;BME280;11789;53.482;9.862;2023-03-23T08:47:37;100151.91;;;10.73;100.00
23241;BME280;11789;53.482;9.862;2023-03-23T08:50:05;100153.63;;;10.72;100.00
23241;BME280;11789;53.482;9.862;2023-03-23T08:52:31;100164.81;;;10.73;100.00
23241;BME280;11789;53.482;9.862;2023-03-23T08:54:56;100162.22;;;10.76;100.00
23241;BME280;11789;53.482;9.862;2023-03-23T08:57:23;100160.44;;;10.81;100.00
23241;BME280;11789;53.482;9.862;2023-03-23T08:59:49;100163.78;;;10.87;100.00
23241;BME280;11789;53.482;9.862;2023-03-23T09:02:15;100171.53;;;10.87;100.00
23241;BME280;11789;53.482;9.862;2023-03-23T09:04:41;100180.09;;;10.93;100.00
23241;BME280;11789;53.482;9.862;2023-03-23T09:07:10;100179.22;;;10.95;100.00
23241;BME280;11789;53.482;9.862;2023-03-23T09:09:38;100180.00;;;11.00;100.00
23241;BME280;11789;53.482;9.862;2023-03-23T09:12:07;100180.78;;;11.05;100.00
23241;BME280;11789;53.482;9.862;2023-03-23T09:14:34;100187.66;;;11.08;100.00
23241;BME280;11789;53.482;9.862;2023-03-23T09:17:01;100185.09;;;11.05;100.00
23241;BME280;11789;53.482;9.862;2023-03-23T09:19:29;100192.03;;;11.03;100.00
23241;BME280;11789;53.482;9.862;2023-03-23T09:21:54;100190.34;;;11.00;100.00
23241;BME280;11789;53.482;9.862;2023-03-23T09:24:20;100203.34;;;10.94;100.00
23241;BME280;11789;53.482;9.862;2023-03-23T09:26:46;100196.53;;;10.87;100.00
23241;BME280;11789;53.482;9.862;2023-03-23T09:29:12;100204.38;;;10.81;100.00
23241;BME280;11789;53.482;9.862;2023-03-23T09:31:38;100195.81;;;10.77;100.00
23241;BME280;11789;53.482;9.862;2023-03-23T09:34:06;100195.81;;;10.76;100.00
23241;BME280;11789;53.482;9.862;2023-03-23T09:36:32;100200.09;;;10.78;100.00
23241;BME280;11789;53.482;9.862;2023-03-23T09:38:58;100203.50;;;10.82;100.00
23241;BME280;11789;53.482;9.862;2023-03-23T09:44:09;100205.12;;;10.90;100.00
23241;BME280;11789;53.482;9.862;2023-03-23T09:46:45;100207.50;;;11.06;100.00
23241;BME280;11789;53.482;9.862;2023-03-23T09:49:31;100214.34;;;11.11;100.00
23241;BME280;11789;53.482;9.862;2023-03-23T09:54:37;100227.94;;;11.24;100.00
23241;BME280;11789;53.482;9.862;2023-03-23T09:57:21;100231.19;;;11.38;100.00
23241;BME280;11789;53.482;9.862;2023-03-23T10:02:29;100228.47;;;11.51;100.00
23241;BME280;11789;53.482;9.862;2023-03-23T10:07:47;100222.41;;;11.52;100.00
23241;BME280;11789;53.482;9.862;2023-03-23T10:10:13;100223.25;;;11.52;100.00
23241;BME280;11789;53.482;9.862;2023-03-23T10:12:48;100219.75;;;11.55;100.00
23241;BME280;11789;53.482;9.862;2023-03-23T10:15:27;100229.16;;;11.60;100.00
23241;BME280;11789;53.482;9.862;2023-03-23T10:18:00;100232.25;;;11.87;99.72
23241;BME280;11789;53.482;9.862;2023-03-23T10:25:50;100241.63;;;12.43;97.49
23241;BME280;11789;53.482;9.862;2023-03-23T10:28:32;100241.47;;;12.53;96.37
23241;BME280;11789;53.482;9.862;2023-03-23T10:31:00;100244.06;;;12.51;97.77
23241;BME280;11789;53.482;9.862;2023-03-23T10:33:46;100235.75;;;12.34;94.33
23241;BME280;11789;53.482;9.862;2023-03-23T10:36:14;100248.13;;;12.16;95.20
23241;BME280;11789;53.482;9.862;2023-03-23T10:38:49;100240.44;;;12.13;93.90
23241;BME280;11789;53.482;9.862;2023-03-23T10:41:18;100262.97;;;12.08;95.29
23241;BME280;11789;53.482;9.862;2023-03-23T10:43:45;100261.31;;;12.04;96.22
23241;BME280;11789;53.482;9.862;2023-03-23T10:46:37;100266.63;;;11.97;97.46
23241;BME280;11789;53.482;9.862;2023-03-23T10:49:11;100266.75;;;11.86;97.53
23241;BME280;11789;53.482;9.862;2023-03-23T10:51:43;100265.97;;;11.79;98.24
23241;BME280;11789;53.482;9.862;2023-03-23T10:54:10;100269.50;;;11.77;99.47
23241;BME280;11789;53.482;9.862;2023-03-23T10:59:27;100269.41;;;11.83;100.00
23241;BME280;11789;53.482;9.862;2023-03-23T11:01:56;100269.34;;;11.86;100.00
23241;BME280;11789;53.482;9.862;2023-03-23T11:04:23;100276.25;;;11.88;100.00
23241;BME280;11789;53.482;9.862;2023-03-23T11:06:52;100278.69;;;11.96;100.00
23241;BME280;11789;53.482;9.862;2023-03-23T11:09:20;100275.06;;;12.06;100.00
23241;BME280;11789;53.482;9.862;2023-03-23T11:11:52;100276.69;;;12.13;100.00
23241;BME280;11789;53.482;9.862;2023-03-23T11:14:26;100279.28;;;12.13;100.00
23241;BME280;11789;53.482;9.862;2023-03-23T11:16:57;100275.88;;;12.10;100.00
23241;BME280;11789;53.482;9.862;2023-03-23T11:19:29;100269.88;;;12.08;100.00
23241;BME280;11789;53.482;9.862;2023-03-23T11:22:20;100270.78;;;12.05;100.00
23241;BME280;11789;53.482;9.862;2023-03-23T11:24:53;100273.53;;;11.94;100.00
23241;BME280;11789;53.482;9.862;2023-03-23T11:27:19;100270.00;;;12.00;100.00
23241;BME280;11789;53.482;9.862;2023-03-23T11:29:53;100276.75;;;12.10;100.00
23241;BME280;11789;53.482;9.862;2023-03-23T11:32:24;100277.53;;;12.15;100.00
23241;BME280;11789;53.482;9.862;2023-03-23T11:34:54;100279.03;;;12.29;100.00
23241;BME280;11789;53.482;9.862;2023-03-23T11:37:33;100294.44;;;12.36;100.00
23241;BME280;11789;53.482;9.862;2023-03-23T11:45:39;100281.59;;;12.32;99.69
23241;BME280;11789;53.482;9.862;2023-03-23T11:48:20;100288.50;;;12.30;97.54
23241;BME280;11789;53.482;9.862;2023-03-23T11:50:54;100285.00;;;12.34;98.85
23241;BME280;11789;53.482;9.862;2023-03-23T11:53:50;100299.81;;;12.26;98.63
23241;BME280;11789;53.482;9.862;2023-03-23T11:56:35;100301.75;;;12.11;99.33
23241;BME280;11789;53.482;9.862;2023-03-23T11:59:02;100318.50;;;11.90;97.29
23241;BME280;11789;53.482;9.862;2023-03-23T12:01:47;100310.84;;;11.80;98.53
23241;BME280;11789;53.482;9.862;2023-03-23T12:09:58;100316.91;;;11.82;100.00
23241;BME280;11789;53.482;9.862;2023-03-23T12:18:06;100318.72;;;11.74;100.00
23241;BME280;11789;53.482;9.862;2023-03-23T12:23:25;100310.34;;;11.55;100.00
23241;BME280;11789;53.482;9.862;2023-03-23T12:26:14;100302.72;;;11.46;100.00
23241;BME280;11789;53.482;9.862;2023-03-23T12:28:50;100297.59;;;11.39;100.00
23241;BME280;11789;53.482;9.862;2023-03-23T12:31:39;100291.59;;;11.37;100.00
23241;BME280;11789;53.482;9.862;2023-03-23T12:34:50;100314.72;;;11.51;100.00
23241;BME280;11789;53.482;9.862;2023-03-23T12:40:06;100305.88;;;11.67;100.00
23241;BME280;11789;53.482;9.862;2023-03-23T12:45:12;100303.44;;;12.15;100.00
23241;BME280;11789;53.482;9.862;2023-03-23T12:47:54;100293.78;;;12.25;100.00
23241;BME280;11789;53.482;9.862;2023-03-23T12:53:24;100289.44;;;12.26;100.00
23241;BME280;11789;53.482;9.862;2023-03-23T12:58:44;100283.12;;;12.42;100.00
23241;BME280;11789;53.482;9.862;2023-03-23T13:01:20;100280.97;;;12.65;100.00
23241;BME280;11789;53.482;9.862;2023-03-23T13:03:57;100281.78;;;12.69;97.81
23241;BME280;11789;53.482;9.862;2023-03-23T13:06:35;100267.03;;;12.71;96.11
23241;BME280;11789;53.482;9.862;2023-03-23T13:11:33;100283.28;;;12.81;95.21
23241;BME280;11789;53.482;9.862;2023-03-23T13:19:34;100278.31;;;12.68;93.83
23241;BME280;11789;53.482;9.862;2023-03-23T13:22:15;100282.62;;;12.69;94.64
23241;BME280;11789;53.482;9.862;2023-03-23T13:24:55;100273.12;;;12.68;93.65
23241;BME280;11789;53.482;9.862;2023-03-23T13:27:26;100270.38;;;12.76;93.96
23241;BME280;11789;53.482;9.862;2023-03-23T13:29:56;100271.13;;;12.83;93.53
23241;BME280;11789;53.482;9.862;2023-03-23T13:32:35;100271.78;;;12.92;93.10
23241;BME280;11789;53.482;9.862;2023-03-23T13:35:04;100266.59;;;12.92;91.43
23241;BME280;11789;53.482;9.862;2023-03-23T13:37:32;100272.44;;;13.04;91.82
23241;BME280;11789;53.482;9.862;2023-03-23T13:42:53;100263.50;;;13.18;87.78
23241;BME280;11789;53.482;9.862;2023-03-23T13:45:20;100259.00;;;13.27;87.60
23241;BME280;11789;53.482;9.862;2023-03-23T13:47:47;100248.56;;;13.30;87.77
23241;BME280;11789;53.482;9.862;2023-03-23T13:50:26;100261.75;;;13.17;87.04
23241;BME280;11789;53.482;9.862;2023-03-23T13:52:54;100254.94;;;13.13;88.70
23241;BME280;11789;53.482;9.862;2023-03-23T14:11:54;100352.94;;;11.31;99.16
23241;BME280;11789;53.482;9.862;2023-03-23T14:16:37;100333.66;;;10.79;100.00
23241;BME280;11789;53.482;9.862;2023-03-23T14:19:13;100331.22;;;10.65;100.00
23241;BME280;11789;53.482;9.862;2023-03-23T14:21:48;100314.09;;;10.54;100.00
23241;BME280;11789;53.482;9.862;2023-03-23T14:24:25;100315.88;;;10.49;100.00
23241;BME280;11789;53.482;9.862;2023-03-23T14:26:52;100315.00;;;10.48;100.00
23241;BME280;11789;53.482;9.862;2023-03-23T14:29:20;100311.59;;;10.49;100.00
23241;BME280;11789;53.482;9.862;2023-03-23T14:31:52;100317.59;;;10.50;100.00
23241;BME280;11789;53.482;9.862;2023-03-23T14:34:20;100306.44;;;10.43;100.00
23241;BME280;11789;53.482;9.862;2023-03-23T14:36:46;100304.75;;;10.39;100.00
23241;BME280;11789;53.482;9.862;2023-03-23T14:39:27;100318.53;;;10.41;100.00